sensor_id;sensor_type;location;lat;lon;timestamp;P1;durP1;ratioP1;P2;durP2;ratioP2
52650;SDS011;38537;47.226;39.702;2023-04-25T00:01:22;6.28;;;4.55;;
52650;SDS011;38537;47.226;39.702;2023-04-25T00:03:49;7.55;;;5.40;;
52650;SDS011;38537;47.226;39.702;2023-04-25T00:06:17;6.93;;;5.20;;
52650;SDS011;38537;47.226;39.702;2023-04-25T00:08:45;7.55;;;4.97;;
52650;SDS011;38537;47.226;39.702;2023-04-25T00:11:12;7.85;;;5.65;;
52650;SDS011;38537;47.226;39.702;2023-04-25T00:13:40;4.97;;;4.40;;
52650;SDS011;38537;47.226;39.702;2023-04-25T00:16:08;8.50;;;6.10;;
52650;SDS011;38537;47.226;39.702;2023-04-25T00:18:36;6.25;;;5.03;;
52650;SDS011;38537;47.226;39.702;2023-04-25T00:21:04;7.13;;;5.93;;
52650;SDS011;38537;47.226;39.702;2023-04-25T00:23:33;6.93;;;5.03;;
52650;SDS011;38537;47.226;39.702;2023-04-25T00:26:02;7.47;;;6.13;;
52650;SDS011;38537;47.226;39.702;2023-04-25T00:28:30;7.05;;;5.60;;
52650;SDS011;38537;47.226;39.702;2023-04-25T00:30:57;6.72;;;4.95;;
52650;SDS011;38537;47.226;39.702;2023-04-25T00:33:24;5.95;;;5.13;;
52650;SDS011;38537;47.226;39.702;2023-04-25T00:35:52;7.53;;;5.63;;
52650;SDS011;38537;47.226;39.702;2023-04-25T00:38:19;5.35;;;4.50;;
52650;SDS011;38537;47.226;39.702;2023-04-25T00:40:47;6.13;;;5.25;;
52650;SDS011;38537;47.226;39.702;2023-04-25T00:43:14;5.88;;;4.57;;
52650;SDS011;38537;47.226;39.702;2023-04-25T00:45:41;5.25;;;4.70;;
52650;SDS011;38537;47.226;39.702;2023-04-25T00:48:10;5.30;;;4.43;;
52650;SDS011;38537;47.226;39.702;2023-04-25T00:50:38;6.50;;;4.47;;
52650;SDS011;38537;47.226;39.702;2023-04-25T00:53:05;5.15;;;4.63;;
52650;SDS011;38537;47.226;39.702;2023-04-25T00:55:33;6.10;;;5.50;;
52650;SDS011;38537;47.226;39.702;2023-04-25T00:58:02;5.57;;;4.60;;
52650;SDS011;38537;47.226;39.702;2023-04-25T01:00:30;8.38;;;5.90;;
52650;SDS011;38537;47.226;39.702;2023-04-25T01:02:57;7.50;;;5.72;;
52650;SDS011;38537;47.226;39.702;2023-04-25T01:05:25;8.27;;;5.45;;
52650;SDS011;38537;47.226;39.702;2023-04-25T01:07:53;6.72;;;5.40;;
52650;SDS011;38537;47.226;39.702;2023-04-25T01:10:20;6.22;;;5.60;;
52650;SDS011;38537;47.226;39.702;2023-04-25T01:12:47;7.43;;;6.28;;
52650;SDS011;38537;47.226;39.702;2023-04-25T01:15:14;6.78;;;5.45;;
52650;SDS011;38537;47.226;39.702;2023-04-25T01:17:41;8.35;;;6.57;;
52650;SDS011;38537;47.226;39.702;2023-04-25T01:20:11;6.70;;;6.00;;
52650;SDS011;38537;47.226;39.702;2023-04-25T01:22:38;9.65;;;7.05;;
52650;SDS011;38537;47.226;39.702;2023-04-25T01:25:06;8.25;;;6.15;;
52650;SDS011;38537;47.226;39.702;2023-04-25T01:27:35;7.40;;;6.70;;
52650;SDS011;38537;47.226;39.702;2023-04-25T01:30:04;6.50;;;5.80;;
52650;SDS011;38537;47.226;39.702;2023-04-25T01:32:33;7.07;;;5.95;;
52650;SDS011;38537;47.226;39.702;2023-04-25T01:35:07;9.30;;;7.03;;
52650;SDS011;38537;47.226;39.702;2023-04-25T01:37:37;8.25;;;5.90;;
52650;SDS011;38537;47.226;39.702;2023-04-25T01:40:10;7.22;;;6.35;;
52650;SDS011;38537;47.226;39.702;2023-04-25T01:42:40;8.23;;;6.00;;
52650;SDS011;38537;47.226;39.702;2023-04-25T01:45:09;8.68;;;6.60;;
52650;SDS011;38537;47.226;39.702;2023-04-25T01:47:38;9.07;;;6.75;;
52650;SDS011;38537;47.226;39.702;2023-04-25T01:50:07;10.15;;;6.85;;
52650;SDS011;38537;47.226;39.702;2023-04-25T01:52:35;9.10;;;6.68;;
52650;SDS011;38537;47.226;39.702;2023-04-25T01:55:03;8.30;;;6.43;;
52650;SDS011;38537;47.226;39.702;2023-04-25T01:57:32;10.85;;;6.70;;
52650;SDS011;38537;47.226;39.702;2023-04-25T02:00:01;7.13;;;6.43;;
52650;SDS011;38537;47.226;39.702;2023-04-25T02:02:40;8.30;;;6.50;;
52650;SDS011;38537;47.226;39.702;2023-04-25T02:05:18;8.95;;;6.95;;
52650;SDS011;38537;47.226;39.702;2023-04-25T02:07:47;8.00;;;6.43;;
52650;SDS011;38537;47.226;39.702;2023-04-25T02:10:15;8.68;;;7.18;;
52650;SDS011;38537;47.226;39.702;2023-04-25T02:12:53;6.60;;;5.50;;
52650;SDS011;38537;47.226;39.702;2023-04-25T02:15:33;5.38;;;4.82;;
52650;SDS011;38537;47.226;39.702;2023-04-25T02:18:32;5.78;;;4.88;;
52650;SDS011;38537;47.226;39.702;2023-04-25T02:21:00;6.57;;;4.72;;
52650;SDS011;38537;47.226;39.702;2023-04-25T02:23:28;6.43;;;4.65;;
52650;SDS011;38537;47.226;39.702;2023-04-25T02:25:56;8.60;;;5.60;;
52650;SDS011;38537;47.226;39.702;2023-04-25T02:28:24;6.85;;;5.20;;
52650;SDS011;38537;47.226;39.702;2023-04-25T02:30:52;6.20;;;4.75;;
52650;SDS011;38537;47.226;39.702;2023-04-25T02:33:20;7.47;;;6.22;;
52650;SDS011;38537;47.226;39.702;2023-04-25T02:35:47;8.05;;;6.10;;
52650;SDS011;38537;47.226;39.702;2023-04-25T02:38:14;6.35;;;5.50;;
52650;SDS011;38537;47.226;39.702;2023-04-25T02:40:42;5.90;;;5.22;;
52650;SDS011;38537;47.226;39.702;2023-04-25T02:43:09;6.50;;;5.32;;
52650;SDS011;38537;47.226;39.702;2023-04-25T02:45:36;7.25;;;5.50;;
52650;SDS011;38537;47.226;39.702;2023-04-25T02:48:04;6.07;;;5.32;;
52650;SDS011;38537;47.226;39.702;2023-04-25T02:50:32;7.07;;;5.60;;
52650;SDS011;38537;47.226;39.702;2023-04-25T02:52:59;5.70;;;5.10;;
52650;SDS011;38537;47.226;39.702;2023-04-25T02:55:33;9.68;;;6.60;;
52650;SDS011;38537;47.226;39.702;2023-04-25T02:58:02;6.13;;;5.53;;
52650;SDS011;38537;47.226;39.702;2023-04-25T03:00:43;7.40;;;5.50;;
52650;SDS011;38537;47.226;39.702;2023-04-25T03:03:10;6.05;;;5.32;;
52650;SDS011;38537;47.226;39.702;2023-04-25T03:05:39;9.55;;;5.60;;
52650;SDS011;38537;47.226;39.702;2023-04-25T03:08:06;7.50;;;6.22;;
52650;SDS011;38537;47.226;39.702;2023-04-25T03:10:36;8.27;;;6.10;;
52650;SDS011;38537;47.226;39.702;2023-04-25T03:13:06;7.10;;;5.90;;
52650;SDS011;38537;47.226;39.702;2023-04-25T03:15:35;10.48;;;6.63;;
52650;SDS011;38537;47.226;39.702;2023-04-25T03:18:03;15.73;;;8.55;;
52650;SDS011;38537;47.226;39.702;2023-04-25T03:20:31;11.50;;;7.05;;
52650;SDS011;38537;47.226;39.702;2023-04-25T03:22:58;11.52;;;7.95;;
52650;SDS011;38537;47.226;39.702;2023-04-25T03:25:27;12.52;;;8.68;;
52650;SDS011;38537;47.226;39.702;2023-04-25T03:27:54;16.35;;;8.98;;
52650;SDS011;38537;47.226;39.702;2023-04-25T03:30:22;33.35;;;12.75;;
52650;SDS011;38537;47.226;39.702;2023-04-25T03:32:49;14.80;;;9.07;;
52650;SDS011;38537;47.226;39.702;2023-04-25T03:35:17;19.70;;;10.38;;
52650;SDS011;38537;47.226;39.702;2023-04-25T03:37:44;16.83;;;10.30;;
52650;SDS011;38537;47.226;39.702;2023-04-25T03:43:09;16.35;;;10.05;;
52650;SDS011;38537;47.226;39.702;2023-04-25T03:45:38;18.40;;;11.40;;
52650;SDS011;38537;47.226;39.702;2023-04-25T03:48:06;16.70;;;10.20;;
52650;SDS011;38537;47.226;39.702;2023-04-25T03:50:33;13.95;;;10.65;;
52650;SDS011;38537;47.226;39.702;2023-04-25T03:53:21;16.90;;;11.27;;
52650;SDS011;38537;47.226;39.702;2023-04-25T03:56:07;18.05;;;11.00;;
52650;SDS011;38537;47.226;39.702;2023-04-25T03:58:36;14.80;;;11.35;;
52650;SDS011;38537;47.226;39.702;2023-04-25T04:01:05;16.15;;;11.77;;
52650;SDS011;38537;47.226;39.702;2023-04-25T04:03:37;15.90;;;11.95;;
52650;SDS011;38537;47.226;39.702;2023-04-25T04:06:05;15.60;;;11.05;;
52650;SDS011;38537;47.226;39.702;2023-04-25T04:08:42;20.88;;;14.40;;
52650;SDS011;38537;47.226;39.702;2023-04-25T04:11:10;15.82;;;11.32;;
52650;SDS011;38537;47.226;39.702;2023-04-25T04:13:37;14.15;;;10.65;;
52650;SDS011;38537;47.226;39.702;2023-04-25T04:16:05;14.93;;;11.35;;
52650;SDS011;38537;47.226;39.702;2023-04-25T04:18:33;13.85;;;11.00;;
52650;SDS011;38537;47.226;39.702;2023-04-25T04:21:01;14.18;;;10.38;;
52650;SDS011;38537;47.226;39.702;2023-04-25T04:23:31;12.68;;;10.43;;
52650;SDS011;38537;47.226;39.702;2023-04-25T04:25:59;13.75;;;10.90;;
52650;SDS011;38537;47.226;39.702;2023-04-25T04:29:02;13.18;;;10.32;;
52650;SDS011;38537;47.226;39.702;2023-04-25T04:31:46;13.20;;;10.55;;
52650;SDS011;38537;47.226;39.702;2023-04-25T04:34:16;14.55;;;10.23;;
52650;SDS011;38537;47.226;39.702;2023-04-25T04:36:45;12.68;;;10.20;;
52650;SDS011;38537;47.226;39.702;2023-04-25T04:39:13;13.65;;;10.50;;
52650;SDS011;38537;47.226;39.702;2023-04-25T04:41:57;13.52;;;10.10;;
52650;SDS011;38537;47.226;39.702;2023-04-25T04:44:32;14.30;;;9.98;;
52650;SDS011;38537;47.226;39.702;2023-04-25T04:47:19;12.60;;;10.07;;
52650;SDS011;38537;47.226;39.702;2023-04-25T04:50:10;16.95;;;10.50;;
52650;SDS011;38537;47.226;39.702;2023-04-25T04:52:53;11.70;;;8.90;;
52650;SDS011;38537;47.226;39.702;2023-04-25T04:55:42;11.68;;;9.30;;
52650;SDS011;38537;47.226;39.702;2023-04-25T04:58:35;16.10;;;8.82;;
52650;SDS011;38537;47.226;39.702;2023-04-25T05:01:32;11.75;;;7.50;;
52650;SDS011;38537;47.226;39.702;2023-04-25T05:04:23;13.75;;;6.65;;
52650;SDS011;38537;47.226;39.702;2023-04-25T05:07:30;10.20;;;6.47;;
52650;SDS011;38537;47.226;39.702;2023-04-25T05:10:06;8.40;;;5.90;;
52650;SDS011;38537;47.226;39.702;2023-04-25T05:12:53;9.70;;;6.30;;
52650;SDS011;38537;47.226;39.702;2023-04-25T05:15:40;8.60;;;4.95;;
52650;SDS011;38537;47.226;39.702;2023-04-25T05:18:24;6.28;;;5.03;;
52650;SDS011;38537;47.226;39.702;2023-04-25T05:21:03;7.90;;;4.53;;
52650;SDS011;38537;47.226;39.702;2023-04-25T05:23:40;6.72;;;4.63;;
52650;SDS011;38537;47.226;39.702;2023-04-25T05:26:23;6.72;;;4.30;;
52650;SDS011;38537;47.226;39.702;2023-04-25T05:29:09;5.68;;;4.55;;
52650;SDS011;38537;47.226;39.702;2023-04-25T05:31:55;10.07;;;4.40;;
52650;SDS011;38537;47.226;39.702;2023-04-25T05:34:23;7.72;;;3.83;;
52650;SDS011;38537;47.226;39.702;2023-04-25T05:36:54;8.93;;;5.03;;
52650;SDS011;38537;47.226;39.702;2023-04-25T05:39:23;5.05;;;3.65;;
52650;SDS011;38537;47.226;39.702;2023-04-25T05:42:08;6.25;;;3.75;;
52650;SDS011;38537;47.226;39.702;2023-04-25T05:44:54;5.47;;;3.92;;
52650;SDS011;38537;47.226;39.702;2023-04-25T05:47:40;5.50;;;3.55;;
52650;SDS011;38537;47.226;39.702;2023-04-25T05:50:13;8.23;;;3.55;;
52650;SDS011;38537;47.226;39.702;2023-04-25T05:53:12;7.07;;;3.60;;
52650;SDS011;38537;47.226;39.702;2023-04-25T05:55:42;4.18;;;3.15;;
52650;SDS011;38537;47.226;39.702;2023-04-25T05:58:21;6.15;;;3.70;;
52650;SDS011;38537;47.226;39.702;2023-04-25T06:00:48;4.63;;;3.05;;
52650;SDS011;38537;47.226;39.702;2023-04-25T06:03:16;5.85;;;3.20;;
52650;SDS011;38537;47.226;39.702;2023-04-25T06:05:47;4.60;;;3.00;;
52650;SDS011;38537;47.226;39.702;2023-04-25T06:08:15;6.65;;;3.05;;
52650;SDS011;38537;47.226;39.702;2023-04-25T06:10:43;5.47;;;2.70;;
52650;SDS011;38537;47.226;39.702;2023-04-25T06:13:10;3.92;;;2.47;;
52650;SDS011;38537;47.226;39.702;2023-04-25T06:15:37;4.97;;;2.75;;
52650;SDS011;38537;47.226;39.702;2023-04-25T06:18:05;4.55;;;2.55;;
52650;SDS011;38537;47.226;39.702;2023-04-25T06:20:33;3.50;;;2.50;;
52650;SDS011;38537;47.226;39.702;2023-04-25T06:23:00;3.40;;;2.40;;
52650;SDS011;38537;47.226;39.702;2023-04-25T06:25:37;2.90;;;2.20;;
52650;SDS011;38537;47.226;39.702;2023-04-25T06:28:05;3.67;;;2.63;;
52650;SDS011;38537;47.226;39.702;2023-04-25T06:30:33;6.63;;;3.78;;
52650;SDS011;38537;47.226;39.702;2023-04-25T06:33:05;5.43;;;2.90;;
52650;SDS011;38537;47.226;39.702;2023-04-25T06:35:33;7.75;;;3.25;;
52650;SDS011;38537;47.226;39.702;2023-04-25T06:38:01;6.75;;;3.25;;
52650;SDS011;38537;47.226;39.702;2023-04-25T06:40:30;6.88;;;3.50;;
52650;SDS011;38537;47.226;39.702;2023-04-25T06:42:57;8.02;;;3.30;;
52650;SDS011;38537;47.226;39.702;2023-04-25T06:45:44;5.40;;;3.00;;
52650;SDS011;38537;47.226;39.702;2023-04-25T06:48:14;6.18;;;3.50;;
52650;SDS011;38537;47.226;39.702;2023-04-25T06:50:42;5.88;;;3.20;;
52650;SDS011;38537;47.226;39.702;2023-04-25T06:53:18;3.70;;;3.00;;
52650;SDS011;38537;47.226;39.702;2023-04-25T06:55:50;5.80;;;3.05;;
52650;SDS011;38537;47.226;39.702;2023-04-25T06:58:20;4.82;;;3.10;;
52650;SDS011;38537;47.226;39.702;2023-04-25T07:00:50;5.75;;;2.97;;
52650;SDS011;38537;47.226;39.702;2023-04-25T07:03:20;8.23;;;3.28;;
52650;SDS011;38537;47.226;39.702;2023-04-25T07:05:50;7.00;;;3.47;;
52650;SDS011;38537;47.226;39.702;2023-04-25T07:08:17;11.15;;;3.20;;
52650;SDS011;38537;47.226;39.702;2023-04-25T07:10:45;7.32;;;2.72;;
52650;SDS011;38537;47.226;39.702;2023-04-25T07:13:15;6.70;;;2.92;;
52650;SDS011;38537;47.226;39.702;2023-04-25T07:15:43;4.70;;;2.30;;
52650;SDS011;38537;47.226;39.702;2023-04-25T07:18:11;5.75;;;2.50;;
52650;SDS011;38537;47.226;39.702;2023-04-25T07:20:38;3.20;;;1.80;;
52650;SDS011;38537;47.226;39.702;2023-04-25T07:23:06;2.60;;;1.60;;
52650;SDS011;38537;47.226;39.702;2023-04-25T07:25:33;3.45;;;2.20;;
52650;SDS011;38537;47.226;39.702;2023-04-25T07:28:02;5.13;;;2.10;;
52650;SDS011;38537;47.226;39.702;2023-04-25T07:30:29;3.08;;;1.73;;
52650;SDS011;38537;47.226;39.702;2023-04-25T07:32:56;4.00;;;1.60;;
52650;SDS011;38537;47.226;39.702;2023-04-25T07:35:24;1.83;;;1.50;;
52650;SDS011;38537;47.226;39.702;2023-04-25T07:37:51;5.00;;;2.17;;
52650;SDS011;38537;47.226;39.702;2023-04-25T07:40:19;3.70;;;2.35;;
52650;SDS011;38537;47.226;39.702;2023-04-25T07:42:50;3.05;;;1.42;;
52650;SDS011;38537;47.226;39.702;2023-04-25T07:45:41;1.90;;;1.58;;
52650;SDS011;38537;47.226;39.702;2023-04-25T07:48:09;3.33;;;1.77;;
52650;SDS011;38537;47.226;39.702;2023-04-25T07:50:38;2.25;;;1.55;;
52650;SDS011;38537;47.226;39.702;2023-04-25T07:53:05;2.75;;;1.70;;
52650;SDS011;38537;47.226;39.702;2023-04-25T07:55:41;4.03;;;1.30;;
52650;SDS011;38537;47.226;39.702;2023-04-25T07:58:14;2.53;;;1.45;;
52650;SDS011;38537;47.226;39.702;2023-04-25T08:00:44;4.57;;;1.40;;
52650;SDS011;38537;47.226;39.702;2023-04-25T08:03:38;5.53;;;1.75;;
52650;SDS011;38537;47.226;39.702;2023-04-25T08:06:13;3.53;;;1.58;;
52650;SDS011;38537;47.226;39.702;2023-04-25T08:08:49;3.03;;;1.70;;
52650;SDS011;38537;47.226;39.702;2023-04-25T08:11:19;1.80;;;1.27;;
52650;SDS011;38537;47.226;39.702;2023-04-25T08:13:47;2.60;;;1.20;;
52650;SDS011;38537;47.226;39.702;2023-04-25T08:16:14;1.48;;;1.10;;
52650;SDS011;38537;47.226;39.702;2023-04-25T08:18:42;2.25;;;1.10;;
52650;SDS011;38537;47.226;39.702;2023-04-25T08:21:10;4.35;;;1.25;;
52650;SDS011;38537;47.226;39.702;2023-04-25T08:23:38;1.73;;;1.00;;
52650;SDS011;38537;47.226;39.702;2023-04-25T08:26:12;1.13;;;0.90;;
52650;SDS011;38537;47.226;39.702;2023-04-25T08:28:41;2.05;;;1.33;;
52650;SDS011;38537;47.226;39.702;2023-04-25T08:31:09;1.10;;;0.95;;
52650;SDS011;38537;47.226;39.702;2023-04-25T08:33:47;2.78;;;1.00;;
52650;SDS011;38537;47.226;39.702;2023-04-25T08:36:31;1.90;;;1.13;;
52650;SDS011;38537;47.226;39.702;2023-04-25T08:39:15;2.60;;;1.15;;
52650;SDS011;38537;47.226;39.702;2023-04-25T08:41:57;3.63;;;1.10;;
52650;SDS011;38537;47.226;39.702;2023-04-25T08:44:25;2.13;;;1.00;;
52650;SDS011;38537;47.226;39.702;2023-04-25T08:46:53;0.82;;;0.63;;
52650;SDS011;38537;47.226;39.702;2023-04-25T08:51:56;0.77;;;0.70;;
52650;SDS011;38537;47.226;39.702;2023-04-25T08:54:27;2.25;;;0.80;;
52650;SDS011;38537;47.226;39.702;2023-04-25T08:57:04;1.55;;;0.80;;
52650;SDS011;38537;47.226;39.702;2023-04-25T08:59:32;3.08;;;0.98;;
52650;SDS011;38537;47.226;39.702;2023-04-25T09:02:00;0.98;;;0.70;;
52650;SDS011;38537;47.226;39.702;2023-04-25T09:04:32;0.77;;;0.75;;
52650;SDS011;38537;47.226;39.702;2023-04-25T09:07:00;2.03;;;0.75;;
52650;SDS011;38537;47.226;39.702;2023-04-25T09:09:28;1.02;;;0.80;;
52650;SDS011;38537;47.226;39.702;2023-04-25T09:11:56;1.17;;;0.80;;
52650;SDS011;38537;47.226;39.702;2023-04-25T09:14:25;1.77;;;0.95;;
52650;SDS011;38537;47.226;39.702;2023-04-25T09:17:04;2.95;;;1.10;;
52650;SDS011;38537;47.226;39.702;2023-04-25T09:19:47;5.47;;;1.00;;
52650;SDS011;38537;47.226;39.702;2023-04-25T09:22:19;1.80;;;1.00;;
52650;SDS011;38537;47.226;39.702;2023-04-25T09:24:49;3.50;;;1.20;;
52650;SDS011;38537;47.226;39.702;2023-04-25T09:27:21;1.88;;;1.10;;
52650;SDS011;38537;47.226;39.702;2023-04-25T09:30:28;2.45;;;1.33;;
52650;SDS011;38537;47.226;39.702;2023-04-25T09:33:10;1.90;;;1.58;;
52650;SDS011;38537;47.226;39.702;2023-04-25T09:35:43;1.25;;;1.15;;
52650;SDS011;38537;47.226;39.702;2023-04-25T09:38:23;5.05;;;1.17;;
52650;SDS011;38537;47.226;39.702;2023-04-25T09:41:07;4.82;;;1.50;;
52650;SDS011;38537;47.226;39.702;2023-04-25T09:43:44;5.18;;;1.98;;
52650;SDS011;38537;47.226;39.702;2023-04-25T09:46:14;4.10;;;2.50;;
52650;SDS011;38537;47.226;39.702;2023-04-25T09:48:49;5.03;;;2.25;;
52650;SDS011;38537;47.226;39.702;2023-04-25T09:51:25;3.53;;;2.30;;
52650;SDS011;38537;47.226;39.702;2023-04-25T09:53:57;4.18;;;1.92;;
52650;SDS011;38537;47.226;39.702;2023-04-25T09:56:53;3.28;;;2.00;;
52650;SDS011;38537;47.226;39.702;2023-04-25T09:59:21;2.85;;;1.90;;
52650;SDS011;38537;47.226;39.702;2023-04-25T10:01:52;3.45;;;2.08;;
52650;SDS011;38537;47.226;39.702;2023-04-25T10:04:29;4.13;;;1.75;;
52650;SDS011;38537;47.226;39.702;2023-04-25T10:07:11;3.55;;;2.00;;
52650;SDS011;38537;47.226;39.702;2023-04-25T10:09:43;3.38;;;1.60;;
52650;SDS011;38537;47.226;39.702;2023-04-25T10:12:14;5.32;;;1.90;;
52650;SDS011;38537;47.226;39.702;2023-04-25T10:14:43;3.58;;;1.80;;
52650;SDS011;38537;47.226;39.702;2023-04-25T10:17:10;3.22;;;1.95;;
52650;SDS011;38537;47.226;39.702;2023-04-25T10:19:40;2.20;;;1.50;;
52650;SDS011;38537;47.226;39.702;2023-04-25T10:22:13;3.35;;;1.60;;
52650;SDS011;38537;47.226;39.702;2023-04-25T10:24:46;1.80;;;1.60;;
52650;SDS011;38537;47.226;39.702;2023-04-25T10:27:13;3.22;;;1.73;;
52650;SDS011;38537;47.226;39.702;2023-04-25T10:29:42;3.67;;;1.88;;
52650;SDS011;38537;47.226;39.702;2023-04-25T10:32:12;3.60;;;1.55;;
52650;SDS011;38537;47.226;39.702;2023-04-25T10:37:13;2.70;;;1.75;;
52650;SDS011;38537;47.226;39.702;2023-04-25T10:39:41;2.70;;;2.00;;
52650;SDS011;38537;47.226;39.702;2023-04-25T10:42:08;3.70;;;1.80;;
52650;SDS011;38537;47.226;39.702;2023-04-25T10:44:39;6.03;;;2.00;;
52650;SDS011;38537;47.226;39.702;2023-04-25T10:47:07;2.13;;;1.70;;
52650;SDS011;38537;47.226;39.702;2023-04-25T10:49:37;3.30;;;1.83;;
52650;SDS011;38537;47.226;39.702;2023-04-25T10:52:11;4.00;;;2.00;;
52650;SDS011;38537;47.226;39.702;2023-04-25T10:54:44;5.15;;;2.00;;
52650;SDS011;38537;47.226;39.702;2023-04-25T11:00:00;4.70;;;1.80;;
52650;SDS011;38537;47.226;39.702;2023-04-25T11:02:36;3.05;;;1.70;;
52650;SDS011;38537;47.226;39.702;2023-04-25T11:05:05;3.08;;;1.50;;
52650;SDS011;38537;47.226;39.702;2023-04-25T11:07:49;2.05;;;1.42;;
52650;SDS011;38537;47.226;39.702;2023-04-25T11:10:32;4.35;;;1.48;;
52650;SDS011;38537;47.226;39.702;2023-04-25T11:13:03;4.15;;;1.80;;
52650;SDS011;38537;47.226;39.702;2023-04-25T11:15:31;1.98;;;1.20;;
52650;SDS011;38537;47.226;39.702;2023-04-25T11:17:58;1.52;;;1.25;;
52650;SDS011;38537;47.226;39.702;2023-04-25T11:20:26;2.40;;;1.50;;
52650;SDS011;38537;47.226;39.702;2023-04-25T11:22:57;3.72;;;1.50;;
52650;SDS011;38537;47.226;39.702;2023-04-25T11:25:28;2.03;;;1.48;;
52650;SDS011;38537;47.226;39.702;2023-04-25T11:27:57;3.13;;;1.20;;
52650;SDS011;38537;47.226;39.702;2023-04-25T11:30:25;4.88;;;1.52;;
52650;SDS011;38537;47.226;39.702;2023-04-25T11:32:53;2.80;;;1.40;;
52650;SDS011;38537;47.226;39.702;2023-04-25T11:35:21;3.28;;;1.17;;
52650;SDS011;38537;47.226;39.702;2023-04-25T11:37:52;2.80;;;1.48;;
52650;SDS011;38537;47.226;39.702;2023-04-25T11:40:20;2.30;;;1.48;;
52650;SDS011;38537;47.226;39.702;2023-04-25T11:42:47;9.18;;;1.48;;
52650;SDS011;38537;47.226;39.702;2023-04-25T11:45:15;1.25;;;1.15;;
52650;SDS011;38537;47.226;39.702;2023-04-25T11:47:42;2.60;;;1.50;;
52650;SDS011;38537;47.226;39.702;2023-04-25T11:50:10;3.25;;;1.45;;
52650;SDS011;38537;47.226;39.702;2023-04-25T11:52:42;1.65;;;1.20;;
52650;SDS011;38537;47.226;39.702;2023-04-25T11:55:14;1.75;;;1.10;;
52650;SDS011;38537;47.226;39.702;2023-04-25T11:57:42;2.55;;;1.30;;
52650;SDS011;38537;47.226;39.702;2023-04-25T12:00:15;1.50;;;1.33;;
52650;SDS011;38537;47.226;39.702;2023-04-25T12:02:47;1.52;;;1.42;;
52650;SDS011;38537;47.226;39.702;2023-04-25T12:05:19;1.75;;;1.50;;
52650;SDS011;38537;47.226;39.702;2023-04-25T12:08:17;3.17;;;1.60;;
52650;SDS011;38537;47.226;39.702;2023-04-25T12:10:45;3.25;;;2.00;;
52650;SDS011;38537;47.226;39.702;2023-04-25T12:13:23;1.60;;;1.45;;
52650;SDS011;38537;47.226;39.702;2023-04-25T12:15:51;3.55;;;2.38;;
52650;SDS011;38537;47.226;39.702;2023-04-25T12:18:22;3.03;;;2.10;;
52650;SDS011;38537;47.226;39.702;2023-04-25T12:20:52;2.70;;;1.90;;
52650;SDS011;38537;47.226;39.702;2023-04-25T12:23:29;2.92;;;2.35;;
52650;SDS011;38537;47.226;39.702;2023-04-25T12:25:57;2.30;;;2.10;;
52650;SDS011;38537;47.226;39.702;2023-04-25T12:28:25;2.90;;;2.10;;
52650;SDS011;38537;47.226;39.702;2023-04-25T12:31:04;3.70;;;2.30;;
52650;SDS011;38537;47.226;39.702;2023-04-25T12:33:33;3.15;;;2.55;;
52650;SDS011;38537;47.226;39.702;2023-04-25T12:36:05;3.47;;;2.55;;
52650;SDS011;38537;47.226;39.702;2023-04-25T12:38:38;4.22;;;3.08;;
52650;SDS011;38537;47.226;39.702;2023-04-25T12:41:06;4.13;;;3.03;;
52650;SDS011;38537;47.226;39.702;2023-04-25T12:43:34;4.93;;;3.15;;
52650;SDS011;38537;47.226;39.702;2023-04-25T12:46:02;4.35;;;3.60;;
52650;SDS011;38537;47.226;39.702;2023-04-25T12:48:30;5.15;;;3.15;;
52650;SDS011;38537;47.226;39.702;2023-04-25T12:50:57;7.68;;;3.60;;
52650;SDS011;38537;47.226;39.702;2023-04-25T12:53:24;4.30;;;3.75;;
52650;SDS011;38537;47.226;39.702;2023-04-25T12:55:52;3.53;;;3.03;;
52650;SDS011;38537;47.226;39.702;2023-04-25T12:58:24;4.25;;;3.20;;
52650;SDS011;38537;47.226;39.702;2023-04-25T13:00:52;3.05;;;2.75;;
52650;SDS011;38537;47.226;39.702;2023-04-25T13:03:19;2.90;;;2.67;;
52650;SDS011;38537;47.226;39.702;2023-04-25T13:05:47;3.22;;;2.92;;
52650;SDS011;38537;47.226;39.702;2023-04-25T13:08:14;4.80;;;3.10;;
52650;SDS011;38537;47.226;39.702;2023-04-25T13:10:42;3.40;;;2.78;;
52650;SDS011;38537;47.226;39.702;2023-04-25T13:13:09;3.63;;;2.90;;
52650;SDS011;38537;47.226;39.702;2023-04-25T13:15:36;4.10;;;3.28;;
52650;SDS011;38537;47.226;39.702;2023-04-25T13:18:04;4.57;;;3.15;;
52650;SDS011;38537;47.226;39.702;2023-04-25T13:20:32;3.30;;;3.00;;
52650;SDS011;38537;47.226;39.702;2023-04-25T13:23:00;4.03;;;3.20;;
52650;SDS011;38537;47.226;39.702;2023-04-25T13:25:28;4.93;;;3.25;;
52650;SDS011;38537;47.226;39.702;2023-04-25T13:27:56;5.22;;;3.30;;
52650;SDS011;38537;47.226;39.702;2023-04-25T13:30:23;5.00;;;3.42;;
52650;SDS011;38537;47.226;39.702;2023-04-25T13:32:50;3.97;;;2.90;;
52650;SDS011;38537;47.226;39.702;2023-04-25T13:35:18;3.63;;;3.03;;
52650;SDS011;38537;47.226;39.702;2023-04-25T13:37:45;3.90;;;3.00;;
52650;SDS011;38537;47.226;39.702;2023-04-25T13:40:13;3.42;;;3.00;;
52650;SDS011;38537;47.226;39.702;2023-04-25T13:42:42;4.15;;;3.00;;
52650;SDS011;38537;47.226;39.702;2023-04-25T13:45:11;4.10;;;3.20;;
52650;SDS011;38537;47.226;39.702;2023-04-25T13:47:38;6.20;;;3.47;;
52650;SDS011;38537;47.226;39.702;2023-04-25T13:50:06;5.65;;;3.17;;
52650;SDS011;38537;47.226;39.702;2023-04-25T13:52:34;3.90;;;3.35;;
52650;SDS011;38537;47.226;39.702;2023-04-25T13:55:02;5.20;;;3.33;;
52650;SDS011;38537;47.226;39.702;2023-04-25T13:57:30;5.00;;;3.88;;
52650;SDS011;38537;47.226;39.702;2023-04-25T13:59:58;4.40;;;3.40;;
52650;SDS011;38537;47.226;39.702;2023-04-25T14:02:27;5.40;;;3.60;;
52650;SDS011;38537;47.226;39.702;2023-04-25T14:04:54;5.45;;;3.55;;
52650;SDS011;38537;47.226;39.702;2023-04-25T14:07:21;4.38;;;3.50;;
52650;SDS011;38537;47.226;39.702;2023-04-25T14:09:49;3.50;;;2.90;;
52650;SDS011;38537;47.226;39.702;2023-04-25T14:12:16;3.67;;;2.95;;
52650;SDS011;38537;47.226;39.702;2023-04-25T14:14:44;4.88;;;3.30;;
52650;SDS011;38537;47.226;39.702;2023-04-25T14:17:17;3.55;;;3.15;;
52650;SDS011;38537;47.226;39.702;2023-04-25T14:19:45;3.70;;;3.25;;
52650;SDS011;38537;47.226;39.702;2023-04-25T14:22:14;4.18;;;3.20;;
52650;SDS011;38537;47.226;39.702;2023-04-25T14:24:42;4.20;;;3.28;;
52650;SDS011;38537;47.226;39.702;2023-04-25T14:27:09;4.50;;;3.10;;
52650;SDS011;38537;47.226;39.702;2023-04-25T14:29:37;3.40;;;3.05;;
52650;SDS011;38537;47.226;39.702;2023-04-25T14:32:04;3.97;;;3.60;;
52650;SDS011;38537;47.226;39.702;2023-04-25T14:34:32;5.30;;;3.47;;
52650;SDS011;38537;47.226;39.702;2023-04-25T14:36:59;3.92;;;3.53;;
52650;SDS011;38537;47.226;39.702;2023-04-25T14:39:27;4.15;;;3.58;;
52650;SDS011;38537;47.226;39.702;2023-04-25T14:41:54;4.70;;;3.20;;
52650;SDS011;38537;47.226;39.702;2023-04-25T14:44:22;5.05;;;3.17;;
52650;SDS011;38537;47.226;39.702;2023-04-25T14:46:50;6.57;;;3.80;;
52650;SDS011;38537;47.226;39.702;2023-04-25T14:49:18;6.15;;;3.47;;
52650;SDS011;38537;47.226;39.702;2023-04-25T14:51:46;5.20;;;3.47;;
52650;SDS011;38537;47.226;39.702;2023-04-25T14:54:15;7.43;;;4.18;;
52650;SDS011;38537;47.226;39.702;2023-04-25T14:56:43;5.63;;;3.42;;
52650;SDS011;38537;47.226;39.702;2023-04-25T14:59:13;5.20;;;3.72;;
52650;SDS011;38537;47.226;39.702;2023-04-25T15:01:41;5.90;;;3.60;;
52650;SDS011;38537;47.226;39.702;2023-04-25T15:04:08;6.35;;;4.20;;
52650;SDS011;38537;47.226;39.702;2023-04-25T15:06:36;5.32;;;3.95;;